Time;durP1;ratioP1;P1;durP2;ratioP2;P2;SDS_P1;SDS_P2;PMS_P1;PMS_P2;Temp;Humidity;BMP_temperature;BMP_pressure;BME280_temperature;BME280_humidity;BME280_pressure;Samples;Min_cycle;Max_cycle;Signal;HPM_P1;HPM_P2
2022/03/13 00:00:42;;;;;;;6.97;3.42;;;11.20;99.90;;;;;;5055501;28;20100;-76
2022/03/13 00:03:10;;;;;;;9.60;3.28;;;11.10;99.90;;;;;;5051336;28;20029;-76
2022/03/13 00:05:39;;;;;;;9.50;3.90;;;11.10;99.90;;;;;;5015108;28;20049;-76
2022/03/13 00:08:19;;;;;;;6.82;3.10;;;11.10;99.90;;;;;;5013681;28;20108;-76
2022/03/13 00:10:47;;;;;;;10.82;3.97;;;11.10;99.90;;;;;;5015166;28;20026;-76
2022/03/13 00:13:15;;;;;;;8.10;3.30;;;11.10;99.90;;;;;;5013635;28;20017;-76
2022/03/13 00:15:42;;;;;;;6.07;2.60;;;11.10;99.90;;;;;;5013729;28;20033;-76
2022/03/13 00:18:11;;;;;;;7.10;3.03;;;11.20;99.90;;;;;;5021950;28;20021;-76
2022/03/13 00:20:37;;;;;;;;;;;11.20;99.90;;;;;;5035182;28;20471;-76
2022/03/13 00:23:02;;;;;;;6.25;2.97;;;11.10;99.90;;;;;;5034987;28;19932;-76
2022/03/13 00:25:28;;;;;;;8.75;3.70;;;11.20;99.90;;;;;;5033230;28;20022;-76
2022/03/13 00:27:54;;;;;;;9.90;3.13;;;11.20;99.90;;;;;;5033066;28;20033;-76
2022/03/13 00:30:20;;;;;;;9.40;3.38;;;11.10;99.90;;;;;;5033376;28;20025;-76
2022/03/13 00:32:46;;;;;;;10.50;4.03;;;11.10;99.90;;;;;;5041267;28;20040;-76
2022/03/13 00:35:13;;;;;;;7.78;3.60;;;11.10;99.90;;;;;;5047231;28;20032;-76
2022/03/13 00:37:38;;;;;;;6.75;2.97;;;11.10;99.90;;;;;;5054132;28;20482;-76
2022/03/13 00:40:05;;;;;;;11.60;4.28;;;11.10;99.90;;;;;;5054399;28;20028;-76
2022/03/13 00:42:31;;;;;;;8.25;3.47;;;11.10;99.90;;;;;;5052886;28;20040;-76
2022/03/13 00:44:57;;;;;;;8.00;3.00;;;11.10;99.90;;;;;;5054386;28;20154;-77
2022/03/13 00:47:22;;;;;;;9.60;3.22;;;11.10;99.90;;;;;;5048019;28;20072;-77
2022/03/13 00:49:49;;;;;;;7.90;3.25;;;11.10;99.90;;;;;;5067247;28;20430;-75
2022/03/13 00:52:15;;;;;;;8.65;4.18;;;11.10;99.90;;;;;;5034010;28;20026;-75
2022/03/13 00:54:40;;;;;;;7.57;3.00;;;11.10;99.90;;;;;;5032803;28;20017;-75
2022/03/13 00:57:06;;;;;;;9.48;3.30;;;11.10;99.90;;;;;;5032630;28;20103;-75
2022/03/13 00:59:32;;;;;;;11.25;3.53;;;11.00;99.90;;;;;;5034035;28;20017;-75
2022/03/13 01:01:58;;;;;;;6.50;3.08;;;11.00;99.90;;;;;;5068920;28;20121;-74
2022/03/13 01:04:24;;;;;;;9.73;3.58;;;11.00;99.90;;;;;;5035691;28;20497;-75
2022/03/13 01:06:49;;;;;;;7.82;3.75;;;11.00;99.90;;;;;;5065992;28;20112;-75
2022/03/13 01:09:16;;;;;;;7.63;3.03;;;11.00;99.90;;;;;;5033618;28;20021;-74
2022/03/13 01:11:42;;;;;;;16.33;3.85;;;11.00;99.90;;;;;;5034041;28;20440;-75
2022/03/13 01:14:08;;;;;;;6.53;2.78;;;11.00;99.90;;;;;;5032447;28;20112;-75
2022/03/13 01:16:37;;;;;;;8.32;3.72;;;11.00;99.90;;;;;;5033714;28;20026;-75
2022/03/13 01:19:04;;;;;;;7.75;2.80;;;11.00;99.90;;;;;;5032493;28;20108;-75
2022/03/13 01:21:34;;;;;;;7.50;3.22;;;11.00;99.90;;;;;;5033892;28;20025;-77
2022/03/13 01:23:59;;;;;;;7.00;3.60;;;11.00;99.90;;;;;;5033985;28;20022;-74
2022/03/13 01:26:25;;;;;;;6.72;3.25;;;11.00;99.90;;;;;;5033462;28;20022;-76
2022/03/13 01:28:51;;;;;;;7.40;2.63;;;11.00;99.90;;;;;;5033821;28;20017;-76
2022/03/13 01:31:22;;;;;;;7.18;2.90;;;10.90;99.90;;;;;;5033337;28;20028;-76
2022/03/13 01:33:47;;;;;;;9.40;2.97;;;10.90;99.90;;;;;;5033288;28;20030;-76
2022/03/13 01:36:13;;;;;;;4.97;2.72;;;10.90;99.90;;;;;;5033364;28;20448;-75
2022/03/13 01:38:39;;;;;;;5.10;2.28;;;10.90;99.90;;;;;;5033417;28;20033;-75
2022/03/13 01:41:06;;;;;;;7.20;3.00;;;10.90;99.90;;;;;;5033997;28;20026;-76
2022/03/13 01:43:31;;;;;;;7.75;2.42;;;10.80;99.90;;;;;;5033569;28;20033;-75
2022/03/13 01:46:01;;;;;;;6.03;2.25;;;10.80;99.90;;;;;;5036143;28;20020;-75
2022/03/13 01:48:27;;;;;;;5.63;2.08;;;10.80;99.90;;;;;;5040035;28;20030;-76
2022/03/13 01:50:53;;;;;;;5.50;2.42;;;10.80;99.90;;;;;;5033532;28;20032;-76
2022/03/13 01:53:21;;;;;;;3.78;2.03;;;10.80;99.90;;;;;;5033136;28;20530;-76
2022/03/13 01:55:48;;;;;;;4.25;1.88;;;10.70;99.90;;;;;;5033168;28;20029;-76
2022/03/13 01:58:14;;;;;;;3.28;1.80;;;10.80;99.90;;;;;;5033253;28;20033;-76
2022/03/13 02:00:40;;;;;;;5.30;1.83;;;10.70;99.90;;;;;;5041749;28;20021;-76
2022/03/13 02:03:05;;;;;;;4.25;1.42;;;10.70;99.90;;;;;;5051775;28;20391;-76
2022/03/13 02:05:34;;;;;;;6.28;2.22;;;10.70;99.90;;;;;;5033699;28;20034;-76
2022/03/13 02:08:10;;;;;;;6.82;1.50;;;10.70;99.90;;;;;;5033023;28;20025;-76
2022/03/13 02:10:36;;;;;;;3.97;1.38;;;10.60;99.90;;;;;;5033363;28;20044;-76
2022/03/13 02:13:01;;;;;;;7.28;2.38;;;10.60;99.90;;;;;;5032977;28;20468;-76
2022/03/13 02:15:31;;;;;;;4.95;1.27;;;10.60;99.90;;;;;;5031770;28;20101;-76
2022/03/13 02:17:58;;;;;;;6.82;2.30;;;10.50;99.90;;;;;;5037742;28;20083;-77
2022/03/13 02:20:27;;;;;;;3.85;1.90;;;10.50;99.90;;;;;;5052616;28;20057;-76
2022/03/13 02:22:58;;;;;;;4.22;1.98;;;10.40;99.90;;;;;;5055537;28;20036;-76
2022/03/13 02:25:24;;;;;;;3.20;1.10;;;10.30;99.90;;;;;;5055381;28;20513;-76
2022/03/13 02:27:50;;;;;;;3.17;1.38;;;10.30;99.90;;;;;;5055353;28;20112;-75
2022/03/13 02:30:15;;;;;;;5.20;2.10;;;10.30;99.90;;;;;;5056947;28;20044;-76
2022/03/13 02:32:41;;;;;;;6.75;2.28;;;10.30;99.90;;;;;;5056545;28;20139;-76
2022/03/13 02:35:08;;;;;;;4.35;1.98;;;10.30;99.90;;;;;;5056652;28;20048;-75
2022/03/13 02:37:39;;;;;;;3.65;1.50;;;10.20;99.90;;;;;;5056403;28;20097;-75
2022/03/13 02:40:06;;;;;;;5.43;2.15;;;10.20;99.90;;;;;;5056544;28;20021;-76
2022/03/13 02:42:32;;;;;;;4.38;1.80;;;10.20;99.90;;;;;;5041094;28;20443;-75
2022/03/13 02:44:58;;;;;;;4.53;1.90;;;10.20;99.90;;;;;;5040301;28;20060;-75
2022/03/13 02:47:23;;;;;;;3.63;1.52;;;10.20;99.90;;;;;;5036456;28;20524;-75
2022/03/13 02:49:49;;;;;;;5.30;1.88;;;10.20;99.90;;;;;;5036815;28;20032;-76
2022/03/13 02:52:14;;;;;;;3.63;1.50;;;10.20;99.90;;;;;;5036577;28;20026;-76
2022/03/13 02:54:40;;;;;;;2.95;1.45;;;10.20;99.90;;;;;;5052762;28;20025;-76
2022/03/13 02:57:06;;;;;;;5.70;2.15;;;10.20;99.90;;;;;;5056454;28;20444;-74
2022/03/13 02:59:32;;;;;;;3.42;2.00;;;10.20;99.90;;;;;;5054721;28;20498;-74
2022/03/13 03:02:00;;;;;;;6.45;2.08;;;10.20;99.90;;;;;;5056240;28;20064;-74
2022/03/13 03:04:26;;;;;;;5.85;1.90;;;10.20;99.90;;;;;;5054912;28;20017;-74
2022/03/13 03:06:58;;;;;;;3.10;1.48;;;10.20;99.90;;;;;;5049433;28;20080;-74
2022/03/13 03:09:23;;;;;;;7.00;1.92;;;10.20;99.90;;;;;;5034886;28;20029;-74
2022/03/13 03:11:49;;;;;;;4.75;2.08;;;10.20;99.90;;;;;;5035958;28;20499;-75
2022/03/13 03:14:15;;;;;;;5.07;2.17;;;10.20;99.90;;;;;;5036077;28;20076;-76
2022/03/13 03:16:42;;;;;;;5.80;2.75;;;10.30;99.90;;;;;;5034892;28;20070;-75
2022/03/13 03:19:08;;;;;;;6.78;2.88;;;10.30;99.90;;;;;;5036286;28;20105;-75
2022/03/13 03:21:33;;;;;;;7.63;2.47;;;10.40;99.90;;;;;;5036112;28;20068;-75
2022/03/13 03:23:59;;;;;;;6.93;2.47;;;10.30;99.90;;;;;;5052931;28;20025;-75
2022/03/13 03:26:25;;;;;;;6.07;2.92;;;10.40;99.90;;;;;;5054371;28;20025;-75
2022/03/13 03:28:51;;;;;;;7.93;2.67;;;10.20;99.90;;;;;;5054646;28;20029;-75
2022/03/13 03:31:16;;;;;;;6.63;2.05;;;10.20;99.90;;;;;;5047110;28;20065;-75
2022/03/13 03:33:45;;;;;;;6.35;2.30;;;10.20;99.90;;;;;;5035371;28;20025;-75
2022/03/13 03:36:15;;;;;;;6.75;3.22;;;10.10;99.90;;;;;;5035929;28;20383;-75
2022/03/13 03:38:41;;;;;;;4.68;2.53;;;10.10;99.90;;;;;;5037193;28;20029;-75
2022/03/13 03:41:06;;;;;;;7.57;2.55;;;10.10;99.90;;;;;;5054944;28;20029;-75
2022/03/13 03:43:32;;;;;;;5.85;2.78;;;10.10;99.90;;;;;;5070754;28;20045;-75
2022/03/13 03:45:57;;;;;;;6.18;2.45;;;10.00;99.90;;;;;;5054067;28;20021;-75
2022/03/13 03:48:23;;;;;;;6.53;2.53;;;10.00;99.90;;;;;;5055459;28;20036;-74
2022/03/13 03:50:49;;;;;;;6.25;2.47;;;9.90;99.90;;;;;;5052116;28;20395;-76
2022/03/13 03:53:14;;;;;;;5.50;2.28;;;9.90;99.90;;;;;;5033943;28;20018;-75
2022/03/13 03:55:40;;;;;;;4.72;2.72;;;9.90;99.90;;;;;;5035294;28;20021;-75
2022/03/13 03:58:05;;;;;;;6.13;2.55;;;9.80;99.90;;;;;;5033774;28;20020;-75
2022/03/13 04:00:31;;;;;;;6.03;2.78;;;9.80;99.90;;;;;;5035051;28;20089;-75
2022/03/13 04:02:57;;;;;;;6.18;2.38;;;9.70;99.90;;;;;;5035268;28;20083;-75
2022/03/13 04:05:23;;;;;;;5.30;2.55;;;9.80;99.90;;;;;;5037342;28;20108;-74
2022/03/13 04:07:48;;;;;;;7.00;2.72;;;9.80;99.90;;;;;;5035019;28;20028;-74
2022/03/13 04:10:14;;;;;;;8.32;2.60;;;9.80;99.90;;;;;;5033631;28;20033;-75
2022/03/13 04:12:40;;;;;;;7.28;2.90;;;9.70;99.90;;;;;;5035285;28;20029;-74
2022/03/13 04:15:06;;;;;;;6.38;2.33;;;9.70;99.90;;;;;;5035116;28;20018;-75
2022/03/13 04:17:32;;;;;;;6.13;2.53;;;9.70;99.90;;;;;;5037618;28;20048;-74
2022/03/13 04:19:58;;;;;;;8.10;3.10;;;9.60;99.90;;;;;;5053415;28;20052;-74
2022/03/13 04:22:23;;;;;;;6.05;2.53;;;9.60;99.90;;;;;;5055026;28;20035;-74
2022/03/13 04:24:49;;;;;;;9.55;3.20;;;9.60;99.90;;;;;;5054725;28;20037;-75
2022/03/13 04:27:15;;;;;;;5.90;2.50;;;9.50;99.90;;;;;;5054796;28;20100;-74
2022/03/13 04:29:41;;;;;;;6.68;2.33;;;9.60;99.90;;;;;;5054557;28;20029;-74
2022/03/13 04:32:08;;;;;;;5.35;2.33;;;9.50;99.90;;;;;;5052694;28;20079;-75
2022/03/13 04:34:33;;;;;;;6.78;3.03;;;9.50;99.90;;;;;;5054151;28;20502;-75
2022/03/13 04:37:00;;;;;;;6.53;2.65;;;9.50;99.90;;;;;;5053403;28;20029;-74
2022/03/13 04:39:35;;;;;;;6.85;3.00;;;9.50;99.90;;;;;;5053244;28;20025;-74
2022/03/13 04:42:07;;;;;;;7.60;3.47;;;9.50;99.90;;;;;;5054542;28;20021;-74
2022/03/13 04:44:33;;;;;;;8.77;3.00;;;9.60;99.90;;;;;;5053262;28;20398;-75
2022/03/13 04:46:59;;;;;;;9.30;3.15;;;9.60;99.90;;;;;;5052245;28;20021;-75
2022/03/13 04:49:25;;;;;;;8.15;3.35;;;9.60;99.90;;;;;;5054747;28;20031;-75
2022/03/13 04:51:50;;;;;;;8.82;3.40;;;9.60;99.90;;;;;;5053109;28;20115;-75
2022/03/13 04:54:17;;;;;;;6.80;3.10;;;9.70;99.90;;;;;;5053131;28;20039;-75
2022/03/13 04:56:44;;;;;;;8.40;4.53;;;9.70;99.90;;;;;;5049538;28;20025;-76
2022/03/13 04:59:10;;;;;;;9.98;4.20;;;9.70;99.90;;;;;;5053049;28;20045;-76
2022/03/13 05:01:36;;;;;;;9.10;4.15;;;9.70;99.90;;;;;;5052839;28;20049;-74
2022/03/13 05:04:02;;;;;;;10.57;4.90;;;9.70;99.90;;;;;;5053817;28;20059;-75
2022/03/13 05:06:28;;;;;;;10.25;4.68;;;9.80;99.90;;;;;;5054634;28;20021;-75
2022/03/13 05:08:54;;;;;;;8.25;4.63;;;9.80;99.90;;;;;;5053842;28;20102;-75
2022/03/13 05:11:19;;;;;;;11.18;4.40;;;9.70;99.90;;;;;;5052730;28;20108;-75
2022/03/13 05:13:45;;;;;;;11.77;5.10;;;9.80;99.90;;;;;;5053755;28;20490;-75
2022/03/13 05:16:10;;;;;;;13.65;5.47;;;9.80;99.90;;;;;;5052608;28;20071;-75
2022/03/13 05:18:36;;;;;;;11.30;5.53;;;9.80;99.90;;;;;;5037672;28;20024;-75
2022/03/13 05:21:02;;;;;;;9.65;4.70;;;9.80;99.90;;;;;;5066005;28;20025;-74
2022/03/13 05:23:28;;;;;;;12.00;4.72;;;9.80;99.90;;;;;;5032795;28;20140;-74
2022/03/13 05:25:53;;;;;;;12.65;5.32;;;9.80;99.90;;;;;;5032954;28;20025;-74
2022/03/13 05:28:19;;;;;;;13.35;5.35;;;9.80;99.90;;;;;;5033937;28;20232;-75
2022/03/13 05:30:46;;;;;;;15.50;6.18;;;9.80;99.90;;;;;;5035453;28;20108;-75
2022/03/13 05:33:12;;;;;;;13.00;5.55;;;9.80;99.90;;;;;;5052381;28;20028;-75
2022/03/13 05:35:38;;;;;;;12.88;6.15;;;9.80;99.90;;;;;;5053638;28;20025;-74
2022/03/13 05:38:04;;;;;;;13.27;5.82;;;9.80;99.90;;;;;;5053393;28;20086;-74
2022/03/13 05:40:29;;;;;;;15.68;5.82;;;9.80;99.90;;;;;;5053384;28;20025;-74
2022/03/13 05:42:56;;;;;;;13.60;5.22;;;9.70;99.90;;;;;;5053516;28;20036;-75
2022/03/13 05:45:24;;;;;;;13.80;5.68;;;9.80;99.90;;;;;;5053098;28;20040;-75
2022/03/13 05:47:52;;;;;;;12.55;5.93;;;9.70;99.90;;;;;;5051798;28;20037;-75
2022/03/13 05:50:19;;;;;;;;;;;9.70;99.90;;;;;;5053928;28;20112;-75
2022/03/13 05:52:45;;;;;;;15.27;6.05;;;9.70;99.90;;;;;;5034139;28;19917;-74
2022/03/13 05:55:12;;;;;;;13.57;5.60;;;9.70;99.90;;;;;;5034280;28;20456;-74
2022/03/13 05:57:38;;;;;;;11.70;5.50;;;9.70;99.90;;;;;;5036106;28;20029;-74
2022/03/13 06:00:06;;;;;;;14.50;6.10;;;9.60;99.90;;;;;;5036118;28;20029;-74
2022/03/13 06:02:32;;;;;;;15.45;6.53;;;9.70;99.90;;;;;;5037333;28;20075;-75
2022/03/13 06:04:58;;;;;;;13.90;5.32;;;9.60;99.90;;;;;;5037184;28;20021;-75
2022/03/13 06:07:23;;;;;;;15.63;5.93;;;9.60;99.90;;;;;;5037253;28;20108;-75
2022/03/13 06:09:51;;;;;;;15.05;6.75;;;9.60;99.90;;;;;;5037559;28;20494;-75
2022/03/13 06:12:16;;;;;;;14.63;6.35;;;9.60;99.90;;;;;;5069111;28;20029;-75
2022/03/13 06:14:43;;;;;;;18.35;6.00;;;9.60;99.90;;;;;;5037065;28;20025;-74
2022/03/13 06:17:08;;;;;;;17.73;7.35;;;9.50;99.90;;;;;;5035664;28;20022;-76
2022/03/13 06:19:34;;;;;;;15.48;6.05;;;9.50;99.90;;;;;;5056735;28;20478;-75
2022/03/13 06:21:59;;;;;;;13.15;6.47;;;9.50;99.90;;;;;;5057062;28;20032;-75
2022/03/13 06:24:25;;;;;;;16.38;6.75;;;9.50;99.90;;;;;;5055739;28;20448;-75
2022/03/13 06:26:51;;;;;;;16.45;6.75;;;9.50;99.90;;;;;;5055564;28;20036;-75
2022/03/13 06:29:16;;;;;;;14.82;6.28;;;9.50;99.90;;;;;;5055613;28;20079;-75
2022/03/13 06:31:42;;;;;;;13.38;6.93;;;9.50;99.90;;;;;;5057156;28;20378;-75
2022/03/13 06:34:08;;;;;;;14.95;6.82;;;9.50;99.90;;;;;;5036905;28;20087;-75
2022/03/13 06:36:35;;;;;;;16.77;6.63;;;9.50;99.90;;;;;;5035973;28;20032;-75
2022/03/13 06:39:02;;;;;;;15.90;6.95;;;9.40;99.90;;;;;;5068510;28;20055;-75
2022/03/13 06:41:28;;;;;;;12.35;5.60;;;9.40;99.90;;;;;;5036620;28;20468;-75
2022/03/13 06:43:54;;;;;;;16.23;6.22;;;9.40;99.90;;;;;;5036662;28;20060;-74
2022/03/13 06:46:20;;;;;;;15.20;6.35;;;9.40;99.90;;;;;;5039683;28;20045;-75
2022/03/13 06:48:45;;;;;;;15.25;7.50;;;9.40;99.90;;;;;;5071905;28;20028;-75
2022/03/13 06:51:12;;;;;;;16.23;7.03;;;9.40;99.90;;;;;;5055640;28;20036;-75
2022/03/13 06:53:37;;;;;;;13.35;6.28;;;9.40;99.90;;;;;;5056944;28;20036;-75
2022/03/13 06:56:03;;;;;;;16.25;6.65;;;9.40;99.90;;;;;;5054908;28;20025;-75
2022/03/13 06:58:29;;;;;;;11.95;5.68;;;9.40;99.90;;;;;;5055208;28;20559;-75
2022/03/13 07:00:55;;;;;;;21.75;6.30;;;9.50;99.90;;;;;;5056211;28;20021;-75
2022/03/13 07:03:20;;;;;;;15.88;6.57;;;9.90;99.90;;;;;;5054465;28;20390;-75
2022/03/13 07:05:46;;;;;;;17.33;6.28;;;9.50;99.90;;;;;;5056085;28;20041;-75
2022/03/13 07:08:13;;;;;;;17.55;7.55;;;9.50;99.90;;;;;;5054647;28;20021;-75
2022/03/13 07:10:42;;;;;;;12.50;5.95;;;9.60;99.90;;;;;;5050303;28;20022;-75
2022/03/13 07:13:08;;;;;;;;;;;12.30;99.90;;;;;;5035208;28;20029;-75
2022/03/13 07:15:33;;;;;;;13.10;5.63;;;9.70;99.90;;;;;;5035043;28;20011;-75
2022/03/13 07:17:59;;;;;;;15.48;5.47;;;9.80;99.90;;;;;;5035914;28;20060;-75
2022/03/13 07:20:24;;;;;;;13.77;6.10;;;9.80;99.90;;;;;;5067964;28;20048;-75
2022/03/13 07:22:50;;;;;;;13.35;6.43;;;9.90;99.90;;;;;;5034657;28;20060;-75
2022/03/13 07:25:16;;;;;;;14.95;6.20;;;9.90;99.90;;;;;;5034543;28;20036;-75
2022/03/13 07:27:43;;;;;;;12.98;6.20;;;10.00;99.90;;;;;;5035796;28;20022;-74
2022/03/13 07:30:14;;;;;;;14.48;6.55;;;10.00;99.90;;;;;;5053932;28;20055;-75
2022/03/13 07:32:41;;;;;;;14.70;6.28;;;10.00;99.90;;;;;;5054219;28;20032;-74
2022/03/13 07:35:08;;;;;;;19.73;6.38;;;10.10;99.90;;;;;;5055936;28;20546;-75
2022/03/13 07:37:36;;;;;;;15.20;6.95;;;10.10;99.90;;;;;;5054213;28;20033;-75
2022/03/13 07:40:03;;;;;;;14.93;6.68;;;12.60;99.90;;;;;;5037790;28;20027;-75
2022/03/13 07:42:28;;;;;;;16.77;7.40;;;10.10;99.40;;;;;;5036025;28;20119;-75
2022/03/13 07:44:54;;;;;;;13.73;6.60;;;10.10;99.50;;;;;;5035555;28;20057;-75
2022/03/13 07:47:20;;;;;;;13.68;6.25;;;10.20;99.20;;;;;;5034606;28;20036;-75
2022/03/13 07:49:45;;;;;;;14.10;6.22;;;10.20;98.90;;;;;;5035360;28;20060;-75
2022/03/13 07:52:11;;;;;;;14.48;6.00;;;10.20;98.70;;;;;;5036825;28;20480;-75
2022/03/13 07:54:37;;;;;;;10.68;5.22;;;10.20;99.00;;;;;;5042953;28;20064;-75
2022/03/13 07:57:03;;;;;;;12.00;6.00;;;10.20;99.10;;;;;;5035466;28;20025;-75
2022/03/13 07:59:28;;;;;;;12.35;6.65;;;10.30;98.40;;;;;;5035808;28;20029;-74
2022/03/13 08:01:54;;;;;;;15.10;6.00;;;10.30;98.10;;;;;;5035750;28;20029;-74
2022/03/13 08:04:20;;;;;;;15.88;7.45;;;10.30;98.10;;;;;;5044337;28;20033;-73
2022/03/13 08:06:45;;;;;;;20.05;6.85;;;10.30;97.60;;;;;;5055265;28;20103;-75
2022/03/13 08:09:11;;;;;;;12.98;5.90;;;10.40;97.50;;;;;;5053966;28;20387;-74
2022/03/13 08:11:43;;;;;;;14.73;5.97;;;10.40;97.00;;;;;;5055170;28;20108;-74
2022/03/13 08:14:10;;;;;;;15.45;6.20;;;10.50;97.10;;;;;;5071058;28;20025;-74
2022/03/13 08:16:35;;;;;;;12.48;5.88;;;10.50;97.50;;;;;;5055147;28;20017;-75
2022/03/13 08:19:01;;;;;;;13.30;6.13;;;10.60;97.30;;;;;;5050689;28;20386;-75
2022/03/13 08:21:27;;;;;;;13.85;6.20;;;10.70;96.80;;;;;;5054742;28;20025;-75
2022/03/13 08:23:54;;;;;;;13.70;6.18;;;10.80;96.70;;;;;;5054937;28;20387;-75
2022/03/13 08:26:20;;;;;;;14.68;6.90;;;10.80;96.30;;;;;;5053397;28;20024;-75
2022/03/13 08:28:45;;;;;;;14.30;6.57;;;10.90;96.10;;;;;;5053307;28;20025;-75
2022/03/13 08:31:11;;;;;;;18.27;6.50;;;11.00;95.50;;;;;;5052911;28;20505;-75
2022/03/13 08:33:37;;;;;;;15.65;6.32;;;11.00;95.80;;;;;;5033324;28;20025;-75
2022/03/13 08:36:04;;;;;;;16.15;6.40;;;11.10;95.70;;;;;;5034816;28;20502;-75
2022/03/13 08:38:29;;;;;;;13.32;5.75;;;11.30;94.40;;;;;;5032994;28;20025;-75
2022/03/13 08:40:55;;;;;;;16.08;6.25;;;11.30;94.60;;;;;;5032928;28;20018;-75
2022/03/13 08:43:21;;;;;;;15.40;5.97;;;11.40;93.80;;;;;;5034696;28;20379;-75
2022/03/13 08:45:47;;;;;;;12.13;6.13;;;11.50;93.60;;;;;;5066235;28;20513;-76
2022/03/13 08:48:13;;;;;;;14.25;5.72;;;11.60;93.60;;;;;;5065922;28;20021;-76
2022/03/13 08:50:39;;;;;;;13.80;6.18;;;11.70;92.80;;;;;;5034170;28;20032;-76
2022/03/13 08:53:04;;;;;;;15.52;6.13;;;11.70;92.70;;;;;;5034298;28;20018;-76
2022/03/13 08:55:30;;;;;;;17.60;6.03;;;11.60;92.60;;;;;;5034081;28;20499;-77
2022/03/13 08:57:56;;;;;;;13.73;5.75;;;11.70;92.90;;;;;;5033914;28;20027;-77
2022/03/13 09:00:24;;;;;;;18.27;6.38;;;11.70;92.90;;;;;;5038486;28;20107;-76
2022/03/13 09:02:50;;;;;;;13.57;6.10;;;11.90;91.80;;;;;;5052598;28;20028;-76
2022/03/13 09:05:16;;;;;;;14.73;6.30;;;11.90;91.60;;;;;;5037227;28;20125;-77
2022/03/13 09:07:42;;;;;;;12.93;5.90;;;12.00;91.00;;;;;;5032523;28;20502;-77
2022/03/13 09:10:08;;;;;;;13.27;5.40;;;12.00;90.90;;;;;;5034479;28;20029;-78
2022/03/13 09:12:35;;;;;;;15.05;6.55;;;12.00;90.50;;;;;;5034043;28;20029;-79
2022/03/13 09:15:03;;;;;;;15.07;7.05;;;12.00;90.60;;;;;;5034167;28;20017;-78
2022/03/13 09:17:29;;;;;;;13.65;6.32;;;12.00;90.10;;;;;;5035129;28;20053;-78
2022/03/13 09:19:56;;;;;;;11.27;5.63;;;12.00;89.80;;;;;;5053860;28;20055;-73
2022/03/13 09:22:25;;;;;;;14.20;6.00;;;12.00;90.00;;;;;;5053440;28;20028;-73
2022/03/13 09:24:51;;;;;;;;;;;12.10;88.80;;;;;;5054112;28;20051;-73
2022/03/13 09:27:19;;;;;;;14.38;6.22;;;12.20;88.10;;;;;;5053342;28;19912;-76
2022/03/13 09:29:45;;;;;;;15.00;5.93;;;12.30;86.80;;;;;;5052600;28;20029;-75
2022/03/13 09:32:11;;;;;;;12.15;5.40;;;12.30;84.70;;;;;;5052459;28;20128;-75
2022/03/13 09:34:37;;;;;;;14.13;6.07;;;12.30;83.60;;;;;;5045847;28;21452;-76
2022/03/13 09:37:03;;;;;;;9.15;5.18;;;12.30;83.00;;;;;;5052936;28;20017;-75
2022/03/13 09:39:30;;;;;;;9.82;5.38;;;12.40;82.30;;;;;;5053538;28;20494;-75
2022/03/13 09:41:56;;;;;;;13.57;6.20;;;12.40;82.60;;;;;;5052026;28;20021;-74
2022/03/13 09:44:22;;;;;;;11.68;5.40;;;12.50;82.60;;;;;;5051858;28;20108;-74
2022/03/13 09:46:47;;;;;;;10.80;5.07;;;12.50;78.70;;;;;;5052916;28;20056;-73
2022/03/13 09:49:16;;;;;;;10.73;4.95;;;12.70;78.40;;;;;;5052160;28;20036;-74
2022/03/13 09:51:42;;;;;;;12.82;6.18;;;12.80;78.00;;;;;;5034561;28;20483;-74
2022/03/13 09:54:07;;;;;;;12.63;5.57;;;12.80;75.90;;;;;;5031880;28;20074;-73
2022/03/13 09:56:35;;;;;;;11.80;5.55;;;12.90;75.20;;;;;;5033264;28;20109;-73
2022/03/13 09:59:01;;;;;;;18.35;6.05;;;12.90;75.00;;;;;;5033314;28;20016;-73
2022/03/13 10:01:27;;;;;;;12.68;5.78;;;13.00;75.00;;;;;;5045969;28;20021;-74
2022/03/13 10:03:54;;;;;;;11.85;5.07;;;13.10;74.30;;;;;;5045729;28;20049;-74
2022/03/13 10:06:19;;;;;;;12.23;5.65;;;13.20;73.90;;;;;;5042834;28;20025;-74
2022/03/13 10:08:45;;;;;;;12.45;6.20;;;13.30;73.20;;;;;;5052858;28;20508;-73
2022/03/13 10:11:11;;;;;;;14.60;4.97;;;13.50;72.70;;;;;;5053174;28;20025;-73
2022/03/13 10:13:42;;;;;;;14.57;6.18;;;13.60;71.10;;;;;;5051641;28;20103;-74
2022/03/13 10:16:15;;;;;;;15.60;6.18;;;13.70;70.10;;;;;;5052973;28;20025;-74
2022/03/13 10:18:41;;;;;;;12.75;5.95;;;13.70;69.80;;;;;;5042999;28;20568;-73
2022/03/13 10:21:08;;;;;;;12.52;5.68;;;13.80;70.50;;;;;;5033059;28;20022;-74
2022/03/13 10:23:35;;;;;;;12.57;5.30;;;13.80;69.70;;;;;;5032970;28;20053;-74
2022/03/13 10:26:00;;;;;;;13.07;6.03;;;13.90;69.60;;;;;;5032874;28;20026;-74
2022/03/13 10:28:45;;;;;;;16.15;5.78;;;14.00;69.70;;;;;;5033113;28;20099;-74
2022/03/13 10:31:18;;;;;;;13.00;5.45;;;14.00;69.90;;;;;;5033083;28;20028;-74
2022/03/13 10:33:43;;;;;;;13.98;5.53;;;14.00;69.90;;;;;;5032760;28;20438;-73
2022/03/13 10:36:21;;;;;;;11.52;5.55;;;14.00;70.10;;;;;;5033101;28;20108;-74
2022/03/13 10:38:48;;;;;;;10.50;5.03;;;14.10;70.80;;;;;;5032715;28;20029;-73
2022/03/13 10:41:14;;;;;;;12.65;5.70;;;14.30;68.90;;;;;;5034033;28;20037;-74
2022/03/13 10:43:40;;;;;;;14.00;6.95;;;14.40;68.20;;;;;;5036893;28;20029;-76
2022/03/13 10:46:06;;;;;;;12.38;5.45;;;14.50;67.60;;;;;;5038891;28;20056;-77
2022/03/13 10:48:36;;;;;;;12.52;5.47;;;14.60;68.80;;;;;;5039864;28;20056;-76
2022/03/13 10:51:04;;;;;;;12.93;6.13;;;14.70;67.50;;;;;;5035056;28;20021;-77
2022/03/13 10:53:31;;;;;;;12.30;5.93;;;14.80;66.50;;;;;;5034927;28;20018;-75
2022/03/13 10:56:13;;;;;;;11.45;6.15;;;14.80;65.70;;;;;;5036242;28;20032;-75
2022/03/13 10:58:48;;;;;;;11.93;5.80;;;14.80;66.70;;;;;;5036383;28;20040;-77
2022/03/13 11:01:18;;;;;;;12.43;6.25;;;15.00;66.80;;;;;;5040476;28;20029;-77
2022/03/13 11:03:55;;;;;;;11.98;6.00;;;15.10;65.70;;;;;;5056022;28;20025;-76
2022/03/13 11:06:25;;;;;;;11.95;6.20;;;15.20;65.70;;;;;;5055894;28;20021;-75
2022/03/13 11:08:55;;;;;;;17.90;6.63;;;15.20;65.10;;;;;;5055977;28;20029;-74
2022/03/13 11:11:22;;;;;;;9.85;5.53;;;15.20;65.90;;;;;;5054573;28;20048;-75
2022/03/13 11:13:54;;;;;;;10.98;5.60;;;15.30;66.00;;;;;;5055707;28;20025;-75
2022/03/13 11:16:30;;;;;;;11.65;5.05;;;15.40;65.20;;;;;;5047868;28;20025;-75
2022/03/13 11:19:02;;;;;;;15.63;6.38;;;15.50;65.10;;;;;;5035757;28;20049;-75
2022/03/13 11:21:29;;;;;;;10.75;5.25;;;15.60;64.60;;;;;;5035722;28;20037;-75
2022/03/13 11:23:54;;;;;;;11.43;5.90;;;15.80;63.90;;;;;;5035942;28;20432;-75
2022/03/13 11:26:24;;;;;;;10.55;5.50;;;15.90;64.40;;;;;;5034408;28;20112;-75
2022/03/13 11:28:50;;;;;;;17.02;6.45;;;16.10;64.30;;;;;;5034182;28;20059;-75
2022/03/13 11:31:37;;;;;;;11.90;5.97;;;16.20;63.30;;;;;;5050939;28;20143;-74
2022/03/13 11:34:20;;;;;;;13.65;5.15;;;16.40;62.90;;;;;;5053999;28;20111;-75
2022/03/13 11:36:52;;;;;;;11.77;5.97;;;16.60;60.90;;;;;;5055377;28;20013;-75
2022/03/13 11:39:29;;;;;;;12.68;5.97;;;16.70;61.10;;;;;;5055105;28;20111;-74
2022/03/13 11:41:55;;;;;;;10.88;4.93;;;16.90;60.80;;;;;;5055222;28;20017;-74
2022/03/13 11:44:25;;;;;;;10.05;5.03;;;17.10;60.30;;;;;;5055124;28;20510;-74
2022/03/13 11:46:53;;;;;;;11.80;5.60;;;17.30;60.30;;;;;;5046097;28;20029;-74
2022/03/13 11:49:33;;;;;;;9.77;4.97;;;17.40;59.30;;;;;;5035202;28;20030;-75
2022/03/13 11:52:13;;;;;;;9.30;4.45;;;17.50;58.90;;;;;;5035170;28;20029;-75
2022/03/13 11:54:45;;;;;;;10.75;5.25;;;17.70;58.10;;;;;;5034740;28;20071;-75
2022/03/13 11:57:15;;;;;;;11.93;4.97;;;17.70;58.30;;;;;;5034967;28;20025;-74
2022/03/13 11:59:40;;;;;;;10.98;5.60;;;17.70;56.80;;;;;;5035247;28;20479;-74
2022/03/13 12:02:12;;;;;;;11.20;5.32;;;17.70;56.90;;;;;;5034829;28;20025;-74
2022/03/13 12:04:38;;;;;;;10.65;5.13;;;17.80;57.20;;;;;;5036949;28;20030;-74
2022/03/13 12:07:23;;;;;;;12.85;5.18;;;18.00;57.10;;;;;;5066753;28;20475;-74
2022/03/13 12:09:49;;;;;;;11.02;4.78;;;18.20;56.60;;;;;;5035385;28;20022;-74
2022/03/13 12:12:17;;;;;;;9.35;5.15;;;18.40;54.80;;;;;;5034555;28;20013;-75
2022/03/13 12:14:59;;;;;;;11.95;5.53;;;18.40;55.40;;;;;;5042609;28;20031;-75
2022/03/13 12:17:27;;;;;;;10.27;4.70;;;18.30;54.40;;;;;;5055210;28;20112;-74
2022/03/13 12:19:55;;;;;;;9.93;4.88;;;18.30;54.70;;;;;;5055521;28;20029;-74
2022/03/13 12:22:24;;;;;;;12.82;5.40;;;18.40;55.50;;;;;;5054580;28;20017;-74
2022/03/13 12:24:51;;;;;;;7.95;3.90;;;18.50;54.80;;;;;;5054635;28;20029;-74
2022/03/13 12:27:18;;;;;;;9.88;4.57;;;18.50;54.30;;;;;;5054440;28;20028;-74
2022/03/13 12:29:57;;;;;;;10.82;5.03;;;18.50;54.00;;;;;;5037516;28;20034;-74
2022/03/13 12:32:37;;;;;;;8.95;4.53;;;18.40;53.60;;;;;;5034427;28;20018;-74
2022/03/13 12:35:03;;;;;;;9.90;4.22;;;18.50;54.20;;;;;;5034245;28;20025;-74
2022/03/13 12:37:29;;;;;;;10.80;4.88;;;18.50;54.50;;;;;;5034086;28;20071;-74
2022/03/13 12:39:58;;;;;;;11.35;5.70;;;18.60;55.10;;;;;;5034522;28;20030;-74
2022/03/13 12:42:34;;;;;;;15.68;6.03;;;18.70;53.50;;;;;;5040478;28;20060;-74
2022/03/13 12:45:00;;;;;;;13.70;5.65;;;18.60;53.10;;;;;;5054101;28;20049;-74